Terminal Aerodrome Forecast
Issued by NWS

Home | Current Version | Previous Version | Text Only | Print | Product List | Glossary On
Versions: 1 2 3 4 5 6 7 8 9 10 11 12 13 14 15 16 17
000
FTUS43 KMQT 280520
TAFSAW
TAF
KSAW 280520Z 2806/2906 22006KT P6SM SCT250
     FM281400 19010KT P6SM VCSH BKN200
     FM281600 18013G21KT P6SM -SHRA OVC150
     FM281900 17014G23KT P6SM -SHRA OVC035
     FM282000 17013G22KT P6SM -SHRA OVC020
     FM282100 17012G20KT 6SM -SHRA OVC008
     FM290000 17010KT P6SM -SHRA OVC008
     FM290100 17009KT 6SM -SHRA OVC003=

USA.gov is the U.S. government's official web portal to all federal, state and local government web resources and services.